Time;durP1;ratioP1;P1;durP2;ratioP2;P2;SDS_P1;SDS_P2;PMS_P1;PMS_P2;Temp;Humidity;BMP_temperature;BMP_pressure;BME280_temperature;BME280_humidity;BME280_pressure;Samples;Min_cycle;Max_cycle;Signal;HPM_P1;HPM_P2
2022/12/27 00:00:07;;;;;;;2.80;1.02;;;;;;;7.08;70.68;100415.19;344539;28;1530;-81
2022/12/27 00:00:19;;;;;;;2.40;0.98;;;;;;;7.10;70.28;100409.16;344529;28;1714;-80
2022/12/27 00:00:32;;;;;;;1.58;0.60;;;;;;;7.05;70.69;100418.66;345151;28;1107;-81
2022/12/27 00:00:44;;;;;;;2.70;0.73;;;;;;;7.06;70.86;100409.16;342277;28;1755;-81
2022/12/27 00:00:56;;;;;;;2.50;0.80;;;;;;;7.09;70.43;100417.75;343784;28;1154;-81
2022/12/27 00:01:14;;;;;;;2.80;0.90;;;;;;;7.03;70.80;100415.22;343993;28;1247;-81
2022/12/27 00:01:28;;;;;;;1.50;0.80;;;;;;;7.07;70.44;100418.66;344028;28;1047;-81
2022/12/27 00:01:40;;;;;;;0.95;0.80;;;;;;;7.16;70.63;100416.88;342843;28;1479;-81
2022/12/27 00:01:52;;;;;;;0.82;0.70;;;;;;;7.09;70.22;100420.34;342731;28;1645;-81
2022/12/27 00:02:04;;;;;;;0.90;0.80;;;;;;;7.06;70.85;100415.19;343458;28;1128;-81
2022/12/27 00:02:16;;;;;;;0.93;0.75;;;;;;;7.06;69.83;100422.94;343442;28;1258;-81
2022/12/27 00:02:28;;;;;;;0.85;0.73;;;;;;;7.11;69.77;100420.34;345346;28;1062;-81
2022/12/27 00:02:40;;;;;;;1.20;0.68;;;;;;;7.01;70.23;100419.53;344348;28;1739;-81
2022/12/27 00:02:52;;;;;;;1.23;0.70;;;;;;;7.02;70.21;100421.25;342085;28;2133;-81
2022/12/27 00:03:05;;;;;;;2.50;0.80;;;;;;;6.97;69.96;100423.00;343690;28;1878;-81
2022/12/27 00:03:17;;;;;;;2.22;0.90;;;;;;;7.04;70.32;100419.50;344047;28;1188;-81
2022/12/27 00:03:29;;;;;;;2.15;0.88;;;;;;;7.06;70.22;100422.09;342995;28;1108;-81
2022/12/27 00:03:41;;;;;;;1.40;0.82;;;;;;;7.06;69.85;100417.75;342752;28;1305;-82
2022/12/27 00:03:53;;;;;;;1.80;0.80;;;;;;;7.07;69.66;100421.22;343764;28;1015;-82
2022/12/27 00:04:05;;;;;;;2.40;0.90;;;;;;;7.12;69.74;100422.94;344189;28;1887;-83
2022/12/27 00:04:17;;;;;;;2.15;0.80;;;;;;;7.02;69.44;100421.25;343684;28;1223;-82
2022/12/27 00:04:29;;;;;;;2.15;0.98;;;;;;;6.99;69.53;100423.84;344822;28;884;-81
2022/12/27 00:04:41;;;;;;;1.17;0.90;;;;;;;7.01;69.82;100419.53;344753;28;1323;-81
2022/12/27 00:04:53;;;;;;;2.00;1.00;;;;;;;7.02;70.39;100418.66;345695;28;840;-81
2022/12/27 00:05:07;;;;;;;3.35;1.10;;;;;;;7.04;69.97;100429.00;346287;28;1073;-81
2022/12/27 00:05:20;;;;;;;3.20;1.10;;;;;;;6.93;69.85;100422.16;345599;28;1303;-82
2022/12/27 00:05:31;;;;;;;1.60;0.63;;;;;;;6.93;70.08;100431.66;346492;28;1198;-81
2022/12/27 00:05:45;;;;;;;0.82;0.68;;;;;;;6.92;69.99;100422.16;346487;28;1275;-81
2022/12/27 00:05:57;;;;;;;1.02;0.95;;;;;;;7.00;70.00;100422.97;346576;28;1169;-81
2022/12/27 00:06:12;;;;;;;2.13;1.20;;;;;;;6.98;70.03;100437.63;346781;28;1503;-81
2022/12/27 00:06:26;;;;;;;2.88;1.05;;;;;;;6.98;69.15;100435.03;347422;28;1264;-81
2022/12/27 00:06:38;;;;;;;1.98;0.70;;;;;;;7.00;69.57;100433.31;346698;28;1145;-82
2022/12/27 00:06:50;;;;;;;1.15;0.70;;;;;;;6.95;69.43;100432.50;343490;28;1210;-81
2022/12/27 00:07:02;;;;;;;1.08;0.80;;;;;;;6.92;69.35;100429.91;341753;28;1802;-82
2022/12/27 00:07:14;;;;;;;1.10;0.80;;;;;;;6.89;69.38;100430.78;342579;28;1170;-81
2022/12/27 00:07:26;;;;;;;1.52;0.90;;;;;;;6.89;69.12;100432.53;343962;28;1123;-81
2022/12/27 00:07:38;;;;;;;2.00;0.80;;;;;;;6.85;68.70;100441.16;342999;28;1237;-81
2022/12/27 00:07:49;;;;;;;2.13;0.70;;;;;;;6.91;68.87;100433.38;342450;28;1073;-82
2022/12/27 00:08:01;;;;;;;2.05;0.80;;;;;;;6.90;68.91;100434.22;343565;28;1268;-81
2022/12/27 00:08:14;;;;;;;2.17;0.85;;;;;;;6.86;69.34;100435.13;343937;28;1291;-82
2022/12/27 00:08:26;;;;;;;1.83;0.80;;;;;;;6.82;68.73;100438.56;342653;28;1500;-81
2022/12/27 00:08:38;;;;;;;2.67;1.10;;;;;;;6.78;69.40;100438.63;342783;28;1413;-81
2022/12/27 00:08:51;;;;;;;2.72;1.20;;;;;;;6.73;69.86;100435.16;344038;28;1052;-80
2022/12/27 00:09:04;;;;;;;2.05;1.00;;;;;;;6.77;69.16;100431.72;345312;28;1026;-81
2022/12/27 00:09:16;;;;;;;2.33;0.90;;;;;;;6.77;68.75;100441.19;344745;28;1550;-81
2022/12/27 00:09:28;;;;;;;2.03;0.80;;;;;;;6.70;69.16;100445.53;346744;28;1177;-81
2022/12/27 00:09:40;;;;;;;1.67;0.70;;;;;;;6.76;68.90;100440.34;347701;28;1030;-81
2022/12/27 00:09:52;;;;;;;1.23;0.60;;;;;;;6.78;68.65;100428.28;347928;28;1029;-81
2022/12/27 00:10:05;;;;;;;1.25;0.75;;;;;;;6.78;68.64;100437.72;346777;28;1265;-81
2022/12/27 00:10:17;;;;;;;2.42;0.85;;;;;;;6.82;68.64;100441.16;345081;28;1475;-82
2022/12/27 00:10:29;;;;;;;2.67;0.90;;;;;;;6.82;68.99;100443.75;346744;28;1007;-82
2022/12/27 00:10:41;;;;;;;2.03;1.10;;;;;;;6.84;68.64;100447.19;346507;28;1173;-82
2022/12/27 00:10:53;;;;;;;2.15;1.23;;;;;;;6.72;68.76;100437.75;346555;28;1149;-81
2022/12/27 00:11:07;;;;;;;3.28;1.17;;;;;;;6.81;68.95;100453.22;346710;28;1037;-81
2022/12/27 00:11:22;;;;;;;3.83;1.00;;;;;;;6.77;68.58;100452.38;345900;28;1270;-82
2022/12/27 00:11:34;;;;;;;2.38;0.85;;;;;;;6.84;68.99;100442.00;345271;28;1112;-81
2022/12/27 00:11:46;;;;;;;1.48;0.65;;;;;;;6.78;68.53;100443.78;345500;28;1126;-81
2022/12/27 00:11:58;;;;;;;1.63;0.70;;;;;;;6.78;68.53;100441.19;345306;28;1106;-80
2022/12/27 00:12:11;;;;;;;1.63;0.70;;;;;;;6.77;68.59;100436.88;344422;28;1483;-81
2022/12/27 00:12:23;;;;;;;2.10;0.75;;;;;;;6.70;68.24;100453.28;346153;28;1300;-81
2022/12/27 00:12:35;;;;;;;2.28;0.75;;;;;;;6.66;68.31;100449.00;345966;28;1011;-81
2022/12/27 00:12:47;;;;;;;2.88;0.70;;;;;;;6.66;68.35;100454.16;345120;28;978;-81
2022/12/27 00:12:59;;;;;;;2.28;0.70;;;;;;;6.69;68.67;100448.13;345252;28;1142;-81
2022/12/27 00:13:11;;;;;;;1.70;0.73;;;;;;;6.70;68.36;100447.25;344456;28;1456;-81
2022/12/27 00:13:23;;;;;;;2.50;0.82;;;;;;;6.76;68.49;100452.38;343884;28;1244;-81
2022/12/27 00:13:35;;;;;;;3.00;0.98;;;;;;;6.75;68.49;100451.53;345255;28;1155;-80
2022/12/27 00:13:47;;;;;;;2.25;0.85;;;;;;;6.69;68.39;100454.13;345309;28;1204;-81
2022/12/27 00:14:01;;;;;;;1.10;0.73;;;;;;;6.67;68.60;100455.88;345258;28;1128;-81
2022/12/27 00:14:13;;;;;;;1.90;0.63;;;;;;;6.73;68.36;100449.81;343119;28;2732;-81
2022/12/27 00:14:25;;;;;;;2.55;0.70;;;;;;;6.77;68.37;100454.97;345375;28;2597;-81
2022/12/27 00:14:37;;;;;;;2.75;0.90;;;;;;;6.73;68.35;100455.00;345132;28;1308;-81
2022/12/27 00:14:49;;;;;;;1.95;0.90;;;;;;;6.80;68.15;100452.38;343589;28;1993;-81
2022/12/27 00:15:01;;;;;;;2.17;0.77;;;;;;;6.78;68.12;100459.28;345107;28;1063;-80
2022/12/27 00:15:13;;;;;;;2.90;0.80;;;;;;;6.80;68.15;100457.56;345230;28;1151;-82
2022/12/27 00:15:25;;;;;;;2.35;0.80;;;;;;;6.68;68.04;100462.78;345582;28;1439;-82
2022/12/27 00:15:37;;;;;;;2.38;0.90;;;;;;;6.64;68.24;100450.72;345965;28;1547;-82
2022/12/27 00:15:49;;;;;;;2.00;1.00;;;;;;;6.62;68.69;100462.78;346191;28;1594;-82
2022/12/27 00:16:06;;;;;;;2.08;1.00;;;;;;;6.67;68.21;100455.88;345788;28;1765;-81
2022/12/27 00:16:20;;;;;;;1.90;1.00;;;;;;;6.65;68.36;100461.91;343920;28;1173;-81
2022/12/27 00:16:32;;;;;;;1.17;0.90;;;;;;;6.68;68.86;100462.78;342769;28;1547;-81
2022/12/27 00:16:44;;;;;;;1.65;0.77;;;;;;;6.65;68.38;100467.09;343037;28;1797;-81
2022/12/27 00:16:56;;;;;;;1.75;0.90;;;;;;;6.64;68.35;100461.06;342733;28;1547;-81
2022/12/27 00:17:08;;;;;;;1.52;0.90;;;;;;;6.65;68.53;100467.94;342356;28;1084;-81
2022/12/27 00:17:20;;;;;;;3.03;0.80;;;;;;;6.65;68.43;100467.94;343002;28;1181;-81
2022/12/27 00:17:32;;;;;;;3.85;0.80;;;;;;;6.62;68.16;100465.38;343068;28;1521;-82
2022/12/27 00:17:44;;;;;;;4.13;0.77;;;;;;;6.67;68.23;100466.19;342473;28;1626;-82
2022/12/27 00:17:57;;;;;;;1.83;0.70;;;;;;;6.67;68.63;100466.19;342885;28;1701;-81
2022/12/27 00:18:08;;;;;;;1.60;0.80;;;;;;;6.71;67.95;100459.31;342318;28;1129;-81
2022/12/27 00:18:20;;;;;;;1.45;0.77;;;;;;;6.74;68.16;100459.28;343088;28;1115;-81
2022/12/27 00:18:32;;;;;;;1.58;0.70;;;;;;;6.78;68.07;100467.03;343565;28;1718;-81
2022/12/27 00:18:45;;;;;;;2.63;0.70;;;;;;;6.85;67.76;100461.84;344117;28;1460;-81
2022/12/27 00:18:58;;;;;;;2.65;0.70;;;;;;;6.86;67.25;100461.84;344394;28;1504;-81
2022/12/27 00:19:10;;;;;;;1.50;0.70;;;;;;;6.82;67.40;100461.84;345518;28;1733;-81
2022/12/27 00:19:22;;;;;;;1.33;0.70;;;;;;;6.77;67.52;100473.06;345770;28;1232;-82
2022/12/27 00:19:34;;;;;;;2.45;0.70;;;;;;;6.75;67.47;100466.19;346520;28;1186;-81
2022/12/27 00:19:46;;;;;;;2.63;0.70;;;;;;;6.72;67.24;100463.59;345936;28;1687;-82
2022/12/27 00:19:58;;;;;;;1.80;0.70;;;;;;;6.69;67.61;100469.63;346314;28;1392;-82
2022/12/27 00:20:10;;;;;;;1.50;0.80;;;;;;;6.63;67.79;100464.50;344969;28;2628;-82
2022/12/27 00:20:23;;;;;;;2.05;0.80;;;;;;;6.71;67.37;100467.91;346327;28;1119;-81
2022/12/27 00:20:34;;;;;;;1.70;0.90;;;;;;;6.75;68.15;100464.44;345662;28;1594;-81
2022/12/27 00:20:46;;;;;;;1.15;0.80;;;;;;;6.72;67.46;100463.59;346539;28;1625;-81
2022/12/27 00:21:00;;;;;;;1.98;0.90;;;;;;;6.61;68.02;100471.38;346378;28;1849;-81
2022/12/27 00:21:12;;;;;;;2.07;0.80;;;;;;;6.69;67.47;100463.63;346560;28;1633;-81
2022/12/27 00:21:25;;;;;;;1.52;0.70;;;;;;;6.67;67.66;100463.63;346391;28;1602;-81
2022/12/27 00:21:37;;;;;;;1.10;0.60;;;;;;;6.69;67.90;100463.63;343871;28;1114;-81
2022/12/27 00:21:49;;;;;;;0.80;0.60;;;;;;;6.62;67.93;100462.78;343865;28;1149;-81
2022/12/27 00:22:01;;;;;;;0.65;0.60;;;;;;;6.57;67.72;100464.53;345014;28;1369;-81
2022/12/27 00:22:13;;;;;;;1.00;0.63;;;;;;;6.55;68.39;100472.25;343223;28;1400;-81
2022/12/27 00:22:25;;;;;;;1.20;0.70;;;;;;;6.62;68.40;100462.78;342199;28;1210;-81
2022/12/27 00:22:38;;;;;;;1.88;0.68;;;;;;;6.62;67.75;100470.53;342798;28;956;-80
2022/12/27 00:22:50;;;;;;;2.03;0.63;;;;;;;6.60;67.56;100467.09;342611;28;1071;-81
2022/12/27 00:23:02;;;;;;;2.08;0.70;;;;;;;6.62;67.60;100475.72;342650;28;1532;-81
2022/12/27 00:23:14;;;;;;;1.67;0.70;;;;;;;6.59;67.85;100467.97;343606;28;1070;-81
2022/12/27 00:23:26;;;;;;;2.38;0.73;;;;;;;6.52;67.65;100471.41;342437;28;1863;-81
2022/12/27 00:23:41;;;;;;;2.63;0.68;;;;;;;6.55;68.45;100468.84;343281;28;1627;-81
2022/12/27 00:23:56;;;;;;;1.20;0.57;;;;;;;6.60;67.81;100470.53;343760;28;1098;-81
2022/12/27 00:24:09;;;;;;;1.23;0.65;;;;;;;6.60;67.68;100462.78;342014;28;1598;-81
2022/12/27 00:24:21;;;;;;;1.33;0.70;;;;;;;6.49;67.98;100471.44;343755;28;1045;-81
2022/12/27 00:24:34;;;;;;;1.90;0.70;;;;;;;6.51;68.14;100472.28;343986;28;1146;-82
2022/12/27 00:24:46;;;;;;;2.40;0.63;;;;;;;6.49;67.52;100477.44;343798;28;1228;-81
2022/12/27 00:24:59;;;;;;;2.90;0.70;;;;;;;6.47;67.91;100468.84;343739;28;1214;-81
2022/12/27 00:25:11;;;;;;;2.88;0.82;;;;;;;6.40;68.09;100472.31;342800;28;1469;-81
2022/12/27 00:25:23;;;;;;;2.25;0.93;;;;;;;6.47;68.09;100470.56;344040;28;1343;-81
2022/12/27 00:25:34;;;;;;;2.72;0.90;;;;;;;6.47;68.08;100462.81;343723;28;1189;-81
2022/12/27 00:25:46;;;;;;;2.45;1.10;;;;;;;6.49;67.77;100466.28;342811;28;1472;-81
2022/12/27 00:26:04;;;;;;;2.30;1.33;;;;;;;6.53;67.66;100467.97;343754;28;1910;-81
2022/12/27 00:26:22;;;;;;;3.13;1.23;;;;;;;6.49;67.71;100466.28;344488;28;1606;-81
2022/12/27 00:26:34;;;;;;;2.40;0.77;;;;;;;6.40;67.39;100470.59;344936;28;1471;-82
2022/12/27 00:26:46;;;;;;;1.30;0.60;;;;;;;6.40;67.76;100473.19;344001;28;1252;-81
2022/12/27 00:26:58;;;;;;;1.20;0.60;;;;;;;6.44;67.76;100480.91;345097;28;1153;-82
2022/12/27 00:27:10;;;;;;;1.60;0.70;;;;;;;6.43;67.61;100471.44;345052;28;1523;-81
2022/12/27 00:27:22;;;;;;;1.80;0.80;;;;;;;6.51;67.16;100477.44;344686;28;2003;-81
2022/12/27 00:27:34;;;;;;;2.60;0.90;;;;;;;6.53;67.39;100467.97;344588;28;1614;-81
2022/12/27 00:27:46;;;;;;;2.85;1.08;;;;;;;6.45;68.07;100470.56;343889;28;1202;-81
2022/12/27 00:27:58;;;;;;;3.42;1.20;;;;;;;6.42;67.63;100469.72;345128;28;1314;-82
2022/12/27 00:28:10;;;;;;;2.85;0.98;;;;;;;6.39;67.52;100474.03;343816;28;1193;-81
2022/12/27 00:28:22;;;;;;;1.73;0.80;;;;;;;6.39;67.93;100474.03;344491;28;1240;-81
2022/12/27 00:28:34;;;;;;;1.77;0.90;;;;;;;6.39;67.72;100471.44;343505;28;1730;-81
2022/12/27 00:28:47;;;;;;;1.88;0.93;;;;;;;6.37;67.33;100470.59;345290;28;1171;-81
2022/12/27 00:28:59;;;;;;;2.00;0.90;;;;;;;6.34;67.39;100470.59;344977;28;1210;-81
2022/12/27 00:29:11;;;;;;;2.25;0.80;;;;;;;6.39;67.46;100480.91;345241;28;1179;-81
2022/12/27 00:29:23;;;;;;;2.10;0.77;;;;;;;6.43;67.65;100479.19;346017;28;1210;-80
2022/12/27 00:29:35;;;;;;;1.63;0.73;;;;;;;6.35;67.55;100467.16;344437;28;1471;-81
2022/12/27 00:29:47;;;;;;;2.67;0.80;;;;;;;6.40;67.27;100473.19;345007;28;1028;-81
2022/12/27 00:29:59;;;;;;;3.35;0.90;;;;;;;6.36;67.45;100471.47;344958;28;1059;-81
2022/12/27 00:30:11;;;;;;;2.60;0.90;;;;;;;6.37;67.37;100478.34;345073;28;2042;-81
2022/12/27 00:30:23;;;;;;;3.53;0.90;;;;;;;6.37;66.79;100473.16;345837;28;1147;-81
2022/12/27 00:30:35;;;;;;;3.08;0.90;;;;;;;6.32;67.46;100474.91;345929;28;1422;-81
2022/12/27 00:30:53;;;;;;;1.58;0.70;;;;;;;6.33;66.88;100470.59;346143;28;1633;-81
2022/12/27 00:31:06;;;;;;;1.35;0.60;;;;;;;6.30;66.97;100481.81;344948;28;1321;-81
2022/12/27 00:31:19;;;;;;;1.38;0.60;;;;;;;6.34;67.25;100473.19;345016;28;1665;-81
2022/12/27 00:31:32;;;;;;;1.10;0.63;;;;;;;6.30;67.24;100474.06;346174;28;1534;-82
2022/12/27 00:31:44;;;;;;;0.80;0.60;;;;;;;6.33;67.38;100471.47;345453;28;1503;-81
2022/12/27 00:31:56;;;;;;;1.00;0.60;;;;;;;6.31;66.86;100473.19;345215;28;1054;-81
2022/12/27 00:32:08;;;;;;;1.15;0.68;;;;;;;6.32;66.80;100474.06;345252;28;1516;-81
2022/12/27 00:32:20;;;;;;;1.70;0.70;;;;;;;6.29;66.88;100474.91;345644;28;2298;-82
2022/12/27 00:32:32;;;;;;;2.45;0.80;;;;;;;6.23;67.12;100469.75;343698;28;1031;-81
2022/12/27 00:32:44;;;;;;;2.22;0.77;;;;;;;6.22;66.35;100482.66;342990;28;1484;-82
2022/12/27 00:32:56;;;;;;;1.33;0.65;;;;;;;6.20;66.32;100474.94;341199;29;1076;-82
2022/12/27 00:33:08;;;;;;;1.10;0.68;;;;;;;6.21;66.70;100471.47;340965;28;1719;-82
2022/12/27 00:33:20;;;;;;;1.52;0.75;;;;;;;6.29;66.31;100481.81;342825;28;1577;-81
2022/12/27 00:33:34;;;;;;;2.75;0.80;;;;;;;6.36;66.51;100476.63;341851;28;1600;-81
2022/12/27 00:33:49;;;;;;;2.97;0.75;;;;;;;6.40;65.64;100478.34;339918;28;1541;-81
2022/12/27 00:34:03;;;;;;;2.08;0.60;;;;;;;6.34;66.64;100473.19;341493;29;808;-80
2022/12/27 00:34:15;;;;;;;1.77;0.75;;;;;;;6.35;66.13;100472.31;341315;29;1203;-81
2022/12/27 00:34:27;;;;;;;1.10;0.82;;;;;;;6.33;66.49;100471.47;342061;28;1071;-81
2022/12/27 00:34:39;;;;;;;1.17;0.80;;;;;;;6.32;65.91;100472.34;343387;28;1087;-81
2022/12/27 00:34:51;;;;;;;1.20;0.73;;;;;;;6.32;65.96;100485.25;343312;28;1522;-81
2022/12/27 00:35:03;;;;;;;1.60;0.60;;;;;;;6.33;65.46;100475.78;342778;28;1792;-81
2022/12/27 00:35:15;;;;;;;2.15;0.60;;;;;;;6.31;65.79;100477.50;343527;28;1512;-80
2022/12/27 00:35:27;;;;;;;1.88;0.60;;;;;;;6.32;66.08;100479.22;343609;28;1409;-80
2022/12/27 00:35:39;;;;;;;1.80;0.68;;;;;;;6.31;66.24;100465.44;342344;28;1103;-81
2022/12/27 00:35:51;;;;;;;1.77;0.70;;;;;;;6.20;66.15;100472.38;341627;28;1703;-81
2022/12/27 00:36:07;;;;;;;2.28;0.80;;;;;;;6.33;65.46;100470.59;341349;28;1674;-81
2022/12/27 00:36:22;;;;;;;1.55;0.68;;;;;;;6.36;65.78;100475.78;342191;28;1505;-81
2022/12/27 00:36:34;;;;;;;1.45;0.50;;;;;;;6.42;65.13;100474.88;343828;28;1186;-81
2022/12/27 00:36:46;;;;;;;1.80;0.57;;;;;;;6.40;65.27;100465.44;343897;28;1039;-81
2022/12/27 00:36:58;;;;;;;1.75;0.60;;;;;;;6.37;65.51;100468.00;343338;28;1490;-82
2022/12/27 00:37:10;;;;;;;1.73;0.90;;;;;;;6.37;65.44;100473.16;343558;28;1377;-82
2022/12/27 00:37:22;;;;;;;1.83;0.90;;;;;;;6.37;65.09;100478.34;343891;28;1347;-82
2022/12/27 00:37:34;;;;;;;1.00;0.70;;;;;;;6.38;64.97;100474.91;343972;28;1147;-81
2022/12/27 00:37:46;;;;;;;0.85;0.75;;;;;;;6.37;65.48;100480.06;343469;28;1163;-82
2022/12/27 00:37:58;;;;;;;1.60;0.90;;;;;;;6.33;65.05;100486.94;344801;28;1057;-81
2022/12/27 00:38:10;;;;;;;1.90;1.02;;;;;;;6.28;65.54;100480.94;342966;28;1565;-81
2022/12/27 00:38:22;;;;;;;1.90;0.90;;;;;;;6.30;65.44;100473.19;342606;28;1373;-81
2022/12/27 00:38:35;;;;;;;1.73;0.80;;;;;;;6.27;65.96;100481.81;341789;28;1057;-81
2022/12/27 00:38:48;;;;;;;1.63;0.60;;;;;;;6.21;65.47;100489.56;340086;29;1803;-80
2022/12/27 00:39:00;;;;;;;1.77;0.68;;;;;;;6.22;65.66;100483.53;341810;28;1572;-80
2022/12/27 00:39:13;;;;;;;2.30;0.98;;;;;;;6.15;66.51;100482.66;340015;28;1498;-81
2022/12/27 00:39:25;;;;;;;2.60;1.10;;;;;;;6.22;65.85;100483.53;339853;29;1364;-81
2022/12/27 00:39:39;;;;;;;2.22;0.90;;;;;;;6.18;66.09;100487.84;341121;29;805;-81
2022/12/27 00:39:51;;;;;;;1.65;0.75;;;;;;;6.22;65.69;100483.53;341262;29;1211;-81
2022/12/27 00:40:03;;;;;;;1.67;0.70;;;;;;;6.23;65.77;100485.25;341516;29;1051;-81
2022/12/27 00:40:15;;;;;;;1.15;0.50;;;;;;;6.25;65.59;100482.66;341238;29;1243;-81
2022/12/27 00:40:27;;;;;;;1.38;0.52;;;;;;;6.26;65.95;100480.09;341361;28;1537;-81
2022/12/27 00:40:40;;;;;;;1.13;0.60;;;;;;;6.21;66.10;100492.13;341871;28;1538;-81
2022/12/27 00:40:52;;;;;;;1.02;0.70;;;;;;;6.29;66.02;100492.13;343190;28;1035;-82
2022/12/27 00:41:05;;;;;;;2.25;0.70;;;;;;;6.32;65.54;100485.25;342206;28;1052;-81
2022/12/27 00:41:17;;;;;;;2.90;0.80;;;;;;;6.34;65.38;100486.09;342128;28;1539;-81
2022/12/27 00:41:30;;;;;;;2.25;0.80;;;;;;;6.39;64.87;100486.94;343648;28;1654;-80
2022/12/27 00:41:42;;;;;;;1.90;0.77;;;;;;;6.34;65.15;100488.69;342801;28;1051;-82
2022/12/27 00:41:54;;;;;;;1.83;0.70;;;;;;;6.39;64.88;100483.50;342248;28;1255;-82
2022/12/27 00:42:06;;;;;;;2.03;0.60;;;;;;;6.33;65.15;100486.94;342538;28;1260;-81
2022/12/27 00:42:18;;;;;;;1.98;0.50;;;;;;;6.29;64.92;100480.06;342384;28;1218;-81
2022/12/27 00:42:30;;;;;;;2.42;0.80;;;;;;;6.33;65.00;100484.38;342830;28;1106;-80
2022/12/27 00:42:42;;;;;;;2.45;1.02;;;;;;;6.32;64.68;100485.25;343143;28;1096;-81
2022/12/27 00:42:54;;;;;;;2.17;1.05;;;;;;;6.25;64.88;100488.69;342579;28;1171;-81
2022/12/27 00:43:06;;;;;;;1.85;1.02;;;;;;;6.30;65.56;100486.09;341279;28;2113;-81
2022/12/27 00:43:18;;;;;;;1.85;0.90;;;;;;;6.29;64.82;100485.25;342038;28;1942;-80
2022/12/27 00:43:30;;;;;;;1.08;0.77;;;;;;;6.25;65.03;100493.84;341037;29;1020;-81
2022/12/27 00:43:42;;;;;;;0.93;0.80;;;;;;;6.17;65.21;100490.41;342099;28;1552;-82
2022/12/27 00:43:55;;;;;;;2.00;0.90;;;;;;;6.14;65.14;100500.78;342278;28;1060;-82
2022/12/27 00:44:07;;;;;;;2.22;0.82;;;;;;;6.15;65.44;100494.72;342904;28;734;-81
2022/12/27 00:44:19;;;;;;;2.75;0.70;;;;;;;6.24;65.90;100496.44;342208;28;1103;-80
2022/12/27 00:44:31;;;;;;;1.60;0.60;;;;;;;6.27;65.20;100491.28;342789;28;1441;-81
2022/12/27 00:44:43;;;;;;;0.90;0.60;;;;;;;6.21;66.52;100492.13;343760;28;1314;-81
2022/12/27 00:44:55;;;;;;;1.00;0.60;;;;;;;6.11;65.74;100491.28;343933;28;1121;-81
2022/12/27 00:45:08;;;;;;;1.20;0.60;;;;;;;6.10;66.36;100493.88;344119;28;1223;-81
2022/12/27 00:45:20;;;;;;;2.60;0.75;;;;;;;6.02;66.16;100495.59;344534;28;1234;-82
2022/12/27 00:45:32;;;;;;;3.97;0.90;;;;;;;6.04;66.56;100493.88;345091;28;1014;-82
2022/12/27 00:45:44;;;;;;;3.58;0.90;;;;;;;6.04;66.76;100493.88;344996;28;1010;-82
2022/12/27 00:45:56;;;;;;;2.33;0.73;;;;;;;6.08;66.20;100495.63;345256;28;1038;-81
2022/12/27 00:46:09;;;;;;;1.38;0.63;;;;;;;6.10;66.42;100499.06;345257;28;1073;-81
2022/12/27 00:46:21;;;;;;;1.75;0.70;;;;;;;6.17;66.65;100499.03;343575;28;1140;-81
2022/12/27 00:46:33;;;;;;;2.25;0.70;;;;;;;6.23;66.62;100495.56;344961;28;1558;-81
2022/12/27 00:46:45;;;;;;;2.83;0.82;;;;;;;6.17;66.67;100500.75;345155;28;1079;-81
2022/12/27 00:46:57;;;;;;;2.78;1.08;;;;;;;6.11;66.74;100495.59;345079;28;1224;-81
2022/12/27 00:47:09;;;;;;;2.45;1.05;;;;;;;6.15;67.08;100494.72;344975;28;1211;-80
2022/12/27 00:47:21;;;;;;;1.65;0.85;;;;;;;6.19;66.52;100493.88;345710;28;1227;-81
2022/12/27 00:47:33;;;;;;;1.58;0.70;;;;;;;6.15;66.56;100487.84;346766;28;1062;-81
2022/12/27 00:47:45;;;;;;;1.67;0.60;;;;;;;6.13;67.43;100493.88;345807;28;2073;-81
2022/12/27 00:47:57;;;;;;;1.17;0.50;;;;;;;6.07;67.17;100493.88;345406;28;1910;-81
2022/12/27 00:48:10;;;;;;;1.70;0.68;;;;;;;6.12;67.04;100502.50;344839;28;1133;-81
2022/12/27 00:48:23;;;;;;;2.40;0.90;;;;;;;6.10;67.21;100499.06;344112;28;1137;-81
2022/12/27 00:48:35;;;;;;;2.20;0.90;;;;;;;6.08;67.17;100500.78;343853;28;1195;-81
2022/12/27 00:48:47;;;;;;;1.60;0.80;;;;;;;6.09;67.44;100502.47;346172;28;1394;-81
2022/12/27 00:48:59;;;;;;;1.30;0.85;;;;;;;6.03;67.75;100505.06;346444;28;1070;-82
2022/12/27 00:49:11;;;;;;;1.60;0.95;;;;;;;6.01;67.70;100502.47;346545;28;1085;-81
2022/12/27 00:49:23;;;;;;;3.95;0.98;;;;;;;6.00;67.53;100498.19;346593;28;1204;-82
2022/12/27 00:49:35;;;;;;;3.80;0.80;;;;;;;6.02;67.83;100500.75;346275;28;1265;-81
2022/12/27 00:49:46;;;;;;;4.15;0.88;;;;;;;6.04;67.64;100497.31;346314;28;1090;-81
2022/12/27 00:49:58;;;;;;;1.80;0.95;;;;;;;6.10;67.84;100499.91;346258;28;1169;-81
2022/12/27 00:50:10;;;;;;;1.95;0.90;;;;;;;6.06;67.43;100503.34;346488;28;1058;-81
2022/12/27 00:50:22;;;;;;;1.13;0.60;;;;;;;6.09;67.13;100494.72;345565;28;1179;-81
2022/12/27 00:50:34;;;;;;;1.95;0.65;;;;;;;6.07;67.16;100499.88;345300;28;1719;-81
2022/12/27 00:50:46;;;;;;;1.90;0.68;;;;;;;6.10;67.50;100504.22;344722;28;2086;-82
2022/12/27 00:51:03;;;;;;;2.13;0.82;;;;;;;6.15;67.35;100503.31;345158;28;1058;-81
2022/12/27 00:51:20;;;;;;;3.00;0.90;;;;;;;6.10;67.94;100506.78;343872;28;1150;-81
2022/12/27 00:51:32;;;;;;;1.75;0.80;;;;;;;6.12;67.37;100515.41;344779;28;1074;-82
2022/12/27 00:51:44;;;;;;;1.77;0.70;;;;;;;6.10;67.70;100506.78;345168;28;1133;-81
2022/12/27 00:51:56;;;;;;;1.40;0.70;;;;;;;6.19;66.91;100505.03;344842;28;1166;-81
2022/12/27 00:52:08;;;;;;;2.03;0.68;;;;;;;6.22;67.44;100505.91;345263;28;1493;-80
2022/12/27 00:52:20;;;;;;;2.90;0.70;;;;;;;6.20;67.12;100511.09;345633;28;1200;-81
2022/12/27 00:52:32;;;;;;;3.70;0.70;;;;;;;6.22;67.63;100495.56;345410;28;1081;-81
2022/12/27 00:52:46;;;;;;;2.35;0.70;;;;;;;6.21;67.13;100507.63;344997;28;1035;-81
2022/12/27 00:52:58;;;;;;;1.73;0.70;;;;;;;6.24;67.31;100499.91;345462;28;1047;-81
2022/12/27 00:53:11;;;;;;;1.83;0.70;;;;;;;6.19;66.97;100504.19;345471;28;1063;-81
2022/12/27 00:53:23;;;;;;;2.53;0.75;;;;;;;6.17;67.54;100505.91;346017;28;1153;-81
2022/12/27 00:53:35;;;;;;;2.45;0.70;;;;;;;6.19;67.25;100504.19;346590;28;769;-81
2022/12/27 00:53:48;;;;;;;1.75;0.80;;;;;;;6.19;66.75;100499.03;346095;28;1940;-81
2022/12/27 00:54:00;;;;;;;1.70;0.95;;;;;;;6.18;67.72;100502.47;346310;28;1106;-81
2022/12/27 00:54:12;;;;;;;1.67;0.95;;;;;;;6.20;67.30;100511.09;346350;28;1071;-81
2022/12/27 00:54:24;;;;;;;1.38;0.93;;;;;;;6.19;67.35;100504.19;346130;28;1172;-81
2022/12/27 00:54:36;;;;;;;1.08;0.70;;;;;;;6.11;67.79;100500.75;345212;28;1285;-81
2022/12/27 00:54:48;;;;;;;1.35;0.65;;;;;;;6.07;67.64;100509.38;344584;28;1814;-81
2022/12/27 00:55:00;;;;;;;1.40;0.60;;;;;;;6.08;67.98;100503.34;343849;28;1101;-81
2022/12/27 00:55:12;;;;;;;1.92;0.63;;;;;;;6.06;67.71;100503.34;343807;28;1116;-81
2022/12/27 00:55:24;;;;;;;2.00;0.70;;;;;;;6.11;67.94;100500.75;345071;28;1212;-81
2022/12/27 00:55:36;;;;;;;3.05;0.80;;;;;;;6.15;67.19;100510.22;344724;28;1543;-81
2022/12/27 00:55:48;;;;;;;2.13;0.63;;;;;;;6.08;67.98;100500.78;343986;28;1099;-81
2022/12/27 00:56:05;;;;;;;2.40;0.88;;;;;;;6.03;68.20;100510.22;344884;28;1734;-81
2022/12/27 00:56:23;;;;;;;1.70;0.95;;;;;;;6.05;68.00;100505.91;344924;28;1094;-81
2022/12/27 00:56:35;;;;;;;1.75;0.70;;;;;;;6.05;68.30;100495.59;344999;28;1039;-81
2022/12/27 00:56:47;;;;;;;2.22;0.80;;;;;;;6.09;67.55;100502.47;346315;28;1037;-81
2022/12/27 00:56:59;;;;;;;2.40;0.90;;;;;;;6.00;67.88;100509.38;346117;28;1027;-81
2022/12/27 00:57:11;;;;;;;2.35;0.98;;;;;;;5.97;67.91;100499.03;346512;28;1081;-81
2022/12/27 00:57:22;;;;;;;2.03;1.27;;;;;;;6.01;68.33;100505.06;345844;28;1255;-82
2022/12/27 00:57:34;;;;;;;1.90;1.40;;;;;;;6.02;68.40;100500.75;346337;28;1026;-81
2022/12/27 00:57:46;;;;;;;1.58;1.02;;;;;;;5.99;68.33;100501.63;344259;28;1034;-83
2022/12/27 00:57:58;;;;;;;1.20;0.73;;;;;;;5.97;68.00;100508.50;345207;28;1128;-84
2022/12/27 00:58:10;;;;;;;1.30;0.70;;;;;;;6.03;68.21;100510.22;344788;28;1287;-82
2022/12/27 00:58:23;;;;;;;1.30;0.70;;;;;;;6.00;68.14;100509.38;342779;28;1720;-82
2022/12/27 00:58:36;;;;;;;2.22;0.68;;;;;;;6.07;67.97;100509.38;343918;28;841;-81
2022/12/27 00:58:53;;;;;;;2.53;0.70;;;;;;;6.10;67.91;100504.22;343636;28;1113;-81
2022/12/27 00:59:05;;;;;;;1.67;0.68;;;;;;;6.05;68.23;100506.78;342444;28;1115;-81
2022/12/27 00:59:18;;;;;;;1.75;0.70;;;;;;;6.03;67.87;100510.22;341756;28;1046;-81
2022/12/27 00:59:30;;;;;;;1.90;0.88;;;;;;;6.08;68.17;100505.94;342471;28;1270;-81
2022/12/27 00:59:42;;;;;;;1.45;0.85;;;;;;;6.08;68.04;100501.63;343212;28;1083;-80
2022/12/27 00:59:54;;;;;;;1.35;0.90;;;;;;;6.04;67.80;100509.34;343382;28;1024;-81
2022/12/27 01:00:06;;;;;;;1.50;0.90;;;;;;;6.04;67.76;100505.06;343272;28;1429;-81